createdAt,value
2023-03-12T00:01:24.286Z,2.73
2023-03-12T00:03:51.725Z,2.60
2023-03-12T00:06:20.048Z,2.50
2023-03-12T00:08:47.149Z,2.73
2023-03-12T00:11:16.164Z,2.83
2023-03-12T00:13:43.338Z,2.87
2023-03-12T00:16:12.267Z,2.90
2023-03-12T00:18:39.299Z,2.10
2023-03-12T00:21:07.309Z,3.07
2023-03-12T00:23:35.380Z,3.43
2023-03-12T00:26:03.198Z,2.87
2023-03-12T00:28:30.401Z,3.13
2023-03-12T00:30:57.969Z,2.70
2023-03-12T00:33:25.099Z,2.83
2023-03-12T00:35:52.175Z,3.33
2023-03-12T00:38:19.331Z,2.40
2023-03-12T00:40:47.181Z,2.50
2023-03-12T00:43:14.041Z,3.63
2023-03-12T00:45:40.681Z,3.23
2023-03-12T00:48:07.382Z,3.53
2023-03-12T00:50:34.076Z,5.60
2023-03-12T00:53:00.919Z,3.30
2023-03-12T00:55:27.632Z,2.00
2023-03-12T00:57:55.059Z,2.63
2023-03-12T01:00:22.076Z,2.90
2023-03-12T01:02:48.866Z,2.70
2023-03-12T01:05:16.435Z,2.83
2023-03-12T01:07:43.467Z,2.73
2023-03-12T01:10:13.871Z,2.80
2023-03-12T01:12:40.572Z,2.83
2023-03-12T01:15:09.366Z,3.13
2023-03-12T01:17:36.396Z,2.57
2023-03-12T01:20:05.013Z,2.30
2023-03-12T01:22:31.923Z,3.00
2023-03-12T01:24:58.630Z,2.83
2023-03-12T01:27:25.329Z,2.50
2023-03-12T01:29:52.135Z,2.73
2023-03-12T01:32:19.536Z,2.70
2023-03-12T01:34:46.265Z,3.03
2023-03-12T01:37:13.152Z,3.27
2023-03-12T01:39:39.793Z,2.33
2023-03-12T01:42:06.699Z,2.50
2023-03-12T01:44:52.137Z,2.40
2023-03-12T01:47:19.869Z,2.27
2023-03-12T01:49:48.086Z,2.53
2023-03-12T01:52:16.890Z,2.10
2023-03-12T01:54:50.116Z,2.87
2023-03-12T01:57:20.917Z,2.93
2023-03-12T01:59:51.636Z,2.50
2023-03-12T02:02:26.298Z,3.00
2023-03-12T02:04:59.726Z,2.27
2023-03-12T02:07:28.045Z,2.53
2023-03-12T02:09:54.896Z,3.10
2023-03-12T02:12:21.604Z,2.13
2023-03-12T02:14:48.895Z,3.07
2023-03-12T02:17:15.661Z,3.00
2023-03-12T02:19:55.346Z,2.53
2023-03-12T02:22:23.136Z,3.30
2023-03-12T02:24:57.103Z,2.77
2023-03-12T02:27:24.682Z,2.50
2023-03-12T02:29:51.416Z,2.20
2023-03-12T02:32:23.177Z,3.03
2023-03-12T02:34:50.343Z,2.93
2023-03-12T02:37:17.973Z,3.50
2023-03-12T02:39:49.344Z,2.87
2023-03-12T02:42:16.312Z,2.80
2023-03-12T02:44:43.912Z,3.60
2023-03-12T02:47:10.681Z,3.10
2023-03-12T02:49:37.342Z,2.43
2023-03-12T02:52:04.504Z,3.00
2023-03-12T02:54:31.431Z,3.10
2023-03-12T02:56:58.857Z,3.20
2023-03-12T02:59:26.127Z,2.83
2023-03-12T03:01:54.381Z,2.53
2023-03-12T03:04:21.430Z,3.00
2023-03-12T03:06:48.161Z,3.20
2023-03-12T03:09:14.930Z,2.70
2023-03-12T03:11:41.861Z,2.50
2023-03-12T03:14:09.438Z,2.30
2023-03-12T03:16:36.303Z,2.97
2023-03-12T03:19:03.913Z,3.57
2023-03-12T03:21:30.796Z,3.10
2023-03-12T03:23:57.409Z,2.90
2023-03-12T03:26:24.780Z,3.30
2023-03-12T03:28:51.940Z,3.00
2023-03-12T03:31:19.292Z,3.07
2023-03-12T03:33:45.994Z,3.30
2023-03-12T03:36:14.137Z,2.70
2023-03-12T03:38:41.488Z,3.70
2023-03-12T03:41:08.229Z,2.40
2023-03-12T03:43:34.994Z,3.43
2023-03-12T03:46:04.096Z,2.93
2023-03-12T03:48:30.975Z,3.17
2023-03-12T03:50:59.830Z,3.27
2023-03-12T03:53:27.321Z,2.97
2023-03-12T03:55:54.012Z,3.00
2023-03-12T03:58:20.909Z,3.13
2023-03-12T04:00:47.648Z,3.20
2023-03-12T04:03:14.371Z,4.07
2023-03-12T04:05:44.427Z,3.03
2023-03-12T04:08:11.397Z,3.33
2023-03-12T04:10:38.840Z,3.43
2023-03-12T04:13:05.563Z,3.07
2023-03-12T04:15:32.241Z,3.77
2023-03-12T04:17:58.961Z,3.47
2023-03-12T04:20:25.759Z,3.93
2023-03-12T04:22:52.446Z,3.57
2023-03-12T04:25:19.504Z,3.80
2023-03-12T04:27:46.867Z,3.63
2023-03-12T04:30:14.257Z,3.63
2023-03-12T04:32:41.007Z,3.20
2023-03-12T04:35:08.189Z,3.60
2023-03-12T04:37:34.889Z,4.70
2023-03-12T04:40:04.206Z,4.30
2023-03-12T04:42:30.898Z,4.17
2023-03-12T04:44:58.301Z,3.50
2023-03-12T04:47:25.036Z,4.90
2023-03-12T04:49:51.840Z,5.27
2023-03-12T04:52:18.460Z,3.90
2023-03-12T04:54:47.954Z,5.13
2023-03-12T04:57:14.803Z,6.03
2023-03-12T04:59:41.531Z,5.30
2023-03-12T05:02:08.857Z,5.17
2023-03-12T05:04:35.495Z,5.23
2023-03-12T05:07:02.144Z,5.40
2023-03-12T05:09:28.826Z,6.20
2023-03-12T05:11:55.664Z,6.33
2023-03-12T05:14:22.375Z,5.93
2023-03-12T05:16:49.221Z,5.73
2023-03-12T05:19:16.521Z,5.63
2023-03-12T05:21:43.442Z,5.80
2023-03-12T05:24:11.184Z,5.70
2023-03-12T05:26:38.134Z,6.47
2023-03-12T05:29:05.920Z,7.17
2023-03-12T05:31:34.501Z,6.00
2023-03-12T05:34:01.507Z,5.50
2023-03-12T05:36:29.126Z,6.23
2023-03-12T05:38:55.958Z,6.00
2023-03-12T05:41:24.042Z,6.17
2023-03-12T05:43:52.484Z,7.00
2023-03-12T05:46:19.114Z,6.40
2023-03-12T05:48:45.857Z,5.90
2023-03-12T05:51:12.487Z,5.23
2023-03-12T05:53:39.927Z,5.73
2023-03-12T05:56:09.025Z,5.60
2023-03-12T05:58:37.326Z,5.67
2023-03-12T06:01:10.756Z,5.03
2023-03-12T06:03:37.433Z,4.87
2023-03-12T06:06:04.681Z,5.50
2023-03-12T06:08:31.398Z,4.30
2023-03-12T06:10:58.834Z,5.77
2023-03-12T06:13:27.378Z,4.70
2023-03-12T06:15:54.243Z,4.57
2023-03-12T06:18:20.976Z,5.00
2023-03-12T06:20:47.656Z,4.40
2023-03-12T06:23:14.578Z,4.33
2023-03-12T06:25:44.209Z,4.60
2023-03-12T06:28:11.593Z,5.10
2023-03-12T06:30:38.220Z,4.90
2023-03-12T06:33:10.418Z,4.83
2023-03-12T06:35:37.140Z,5.17
2023-03-12T06:38:03.801Z,4.73
2023-03-12T06:40:30.443Z,4.43
2023-03-12T06:42:57.199Z,5.37
2023-03-12T06:45:24.968Z,4.70
2023-03-12T06:47:51.674Z,6.13
2023-03-12T06:50:18.598Z,4.47
2023-03-12T06:52:45.280Z,4.80
2023-03-12T06:55:11.986Z,4.67
2023-03-12T06:57:38.677Z,4.87
2023-03-12T07:00:07.400Z,4.77
2023-03-12T07:02:34.769Z,4.80
2023-03-12T07:05:01.543Z,4.30
2023-03-12T07:07:28.252Z,5.07
2023-03-12T07:09:54.967Z,4.77
2023-03-12T07:12:21.736Z,4.33
2023-03-12T07:14:48.388Z,4.67
2023-03-12T07:17:15.031Z,4.10
2023-03-12T07:19:42.471Z,4.37
2023-03-12T07:22:09.125Z,4.00
2023-03-12T07:24:35.840Z,4.10
2023-03-12T07:27:03.379Z,4.43
2023-03-12T07:29:30.144Z,3.70
2023-03-12T07:31:56.814Z,4.93
2023-03-12T07:34:23.703Z,5.03
2023-03-12T07:36:51.397Z,4.73
2023-03-12T07:39:18.979Z,4.07
2023-03-12T07:41:45.707Z,4.77
2023-03-12T07:44:12.435Z,3.77
2023-03-12T07:46:39.113Z,4.33
2023-03-12T07:49:05.989Z,3.37
2023-03-12T07:51:32.680Z,3.50
2023-03-12T07:54:00.045Z,4.13
2023-03-12T07:56:26.923Z,3.27
2023-03-12T07:58:54.125Z,3.87
2023-03-12T08:01:21.019Z,3.90
2023-03-12T08:03:47.812Z,3.70
2023-03-12T08:06:14.561Z,3.67
2023-03-12T08:08:41.811Z,4.10
2023-03-12T08:11:09.554Z,3.53
2023-03-12T08:13:36.347Z,4.50
2023-03-12T08:16:03.663Z,3.50
2023-03-12T08:18:30.515Z,3.80
2023-03-12T08:20:57.233Z,4.23
2023-03-12T08:23:24.223Z,4.53
2023-03-12T08:25:51.315Z,3.67
2023-03-12T08:28:19.898Z,4.07
2023-03-12T08:30:47.841Z,3.33
2023-03-12T08:33:14.712Z,3.97
2023-03-12T08:35:41.990Z,3.80
2023-03-12T08:38:08.744Z,4.80
2023-03-12T08:40:35.552Z,4.27
2023-03-12T08:43:02.704Z,5.17
2023-03-12T08:45:30.409Z,3.77
2023-03-12T08:47:57.098Z,3.80
2023-03-12T08:50:25.686Z,4.13
2023-03-12T08:52:52.330Z,3.20
2023-03-12T08:55:19.067Z,3.13
2023-03-12T08:57:45.958Z,3.50
2023-03-12T09:00:15.387Z,2.90
2023-03-12T09:02:44.307Z,2.87
2023-03-12T09:05:11.635Z,3.07
2023-03-12T09:07:38.816Z,3.43
2023-03-12T09:10:06.730Z,2.87
2023-03-12T09:12:33.432Z,3.33
2023-03-12T09:15:04.768Z,3.17
2023-03-12T09:17:31.905Z,2.20
2023-03-12T09:20:00.170Z,3.10
2023-03-12T09:22:28.456Z,3.07
2023-03-12T09:24:55.142Z,2.87
2023-03-12T09:27:22.052Z,2.50
2023-03-12T09:30:00.236Z,2.57
2023-03-12T09:32:27.943Z,2.23
2023-03-12T09:34:54.872Z,2.83
2023-03-12T09:37:24.152Z,2.20
2023-03-12T09:39:53.191Z,2.10
2023-03-12T09:42:24.574Z,2.13
2023-03-12T09:44:53.397Z,2.10
2023-03-12T09:47:27.450Z,2.20
2023-03-12T09:49:59.304Z,2.40
2023-03-12T09:52:30.440Z,2.43
2023-03-12T09:55:02.621Z,4.37
2023-03-12T09:57:29.423Z,3.57
2023-03-12T09:59:57.101Z,2.27
2023-03-12T10:02:48.105Z,1.63
2023-03-12T10:05:20.224Z,2.70
2023-03-12T10:07:52.712Z,1.53
2023-03-12T10:10:32.536Z,2.00
2023-03-12T10:13:13.776Z,2.00
2023-03-12T10:15:48.610Z,2.60
2023-03-12T10:18:25.159Z,2.50
2023-03-12T10:21:11.688Z,1.67
2023-03-12T10:24:02.391Z,1.50
2023-03-12T10:26:33.998Z,2.10
2023-03-12T10:29:05.735Z,1.60
2023-03-12T10:31:37.035Z,1.93
2023-03-12T10:34:14.183Z,2.47
2023-03-12T10:36:42.190Z,2.43
2023-03-12T10:39:15.442Z,2.17
2023-03-12T10:41:44.583Z,1.80
2023-03-12T10:44:19.460Z,2.37
2023-03-12T10:46:55.799Z,2.13
2023-03-12T10:49:33.859Z,1.80
2023-03-12T10:52:04.832Z,1.90
2023-03-12T10:54:35.689Z,2.07
2023-03-12T10:57:03.357Z,1.80
2023-03-12T10:59:32.509Z,1.57
2023-03-12T11:02:00.270Z,1.83
2023-03-12T11:04:30.373Z,1.73
2023-03-12T11:07:20.938Z,1.60
2023-03-12T11:10:17.650Z,2.13
2023-03-12T11:12:54.294Z,2.10
2023-03-12T11:15:23.997Z,1.83
2023-03-12T11:17:51.198Z,4.63
2023-03-12T11:20:25.161Z,1.40
2023-03-12T11:22:52.471Z,1.87
2023-03-12T11:25:31.304Z,2.27
2023-03-12T11:28:04.867Z,2.80
2023-03-12T11:30:40.472Z,2.00
2023-03-12T11:33:11.575Z,2.50
2023-03-12T11:35:57.974Z,2.33
2023-03-12T11:38:44.607Z,2.70
2023-03-12T11:41:42.907Z,4.43
2023-03-12T11:44:28.934Z,2.10
2023-03-12T11:47:29.160Z,2.77
2023-03-12T11:50:21.564Z,3.10
2023-03-12T11:53:14.883Z,3.13
2023-03-12T11:55:59.995Z,3.00
2023-03-12T11:59:24.964Z,2.33
2023-03-12T12:02:34.901Z,2.30
2023-03-12T12:05:35.085Z,3.10
2023-03-12T12:08:48.118Z,2.83
2023-03-12T12:11:30.697Z,3.10
2023-03-12T12:14:28.315Z,2.60
2023-03-12T12:17:43.490Z,2.53
2023-03-12T12:20:35.409Z,2.80
2023-03-12T12:23:17.705Z,2.73
2023-03-12T12:26:06.757Z,2.80
2023-03-12T12:29:11.214Z,2.97
2023-03-12T12:35:21.100Z,2.77
2023-03-12T12:38:02.533Z,2.67
2023-03-12T12:40:38.036Z,2.87
2023-03-12T12:43:24.778Z,2.70
2023-03-12T12:45:57.821Z,2.70
2023-03-12T12:48:30.466Z,2.90
2023-03-12T12:51:00.216Z,2.80
2023-03-12T12:53:33.285Z,3.03
2023-03-12T12:56:18.456Z,2.90
2023-03-12T12:59:16.026Z,2.80
2023-03-12T13:01:44.162Z,3.10
2023-03-12T13:04:16.041Z,2.73
2023-03-12T13:06:59.984Z,2.10
2023-03-12T13:09:39.609Z,1.83
2023-03-12T13:12:15.485Z,2.10
2023-03-12T13:14:44.800Z,2.03
2023-03-12T13:17:29.200Z,2.10
2023-03-12T13:20:10.413Z,2.40
2023-03-12T13:23:15.537Z,2.27
2023-03-12T13:25:54.240Z,2.73
2023-03-12T13:28:34.432Z,2.47
2023-03-12T13:31:20.406Z,2.40
2023-03-12T13:33:49.913Z,2.90
2023-03-12T13:36:25.409Z,2.77
2023-03-12T13:38:58.184Z,2.33
2023-03-12T13:41:37.987Z,2.17
2023-03-12T13:44:30.621Z,1.93
2023-03-12T13:47:00.224Z,2.23
2023-03-12T13:49:36.320Z,2.43
2023-03-12T13:52:20.803Z,2.07
2023-03-12T13:55:00.262Z,1.70
2023-03-12T13:57:38.492Z,1.97
2023-03-12T14:00:12.373Z,2.00
2023-03-12T14:02:46.644Z,1.87
2023-03-12T14:05:15.437Z,2.13
2023-03-12T14:08:10.179Z,1.60
2023-03-12T14:10:58.669Z,1.50
2023-03-12T14:13:39.302Z,1.47
2023-03-12T14:16:15.638Z,1.80
2023-03-12T14:18:47.566Z,1.47
2023-03-12T14:21:16.494Z,1.53
2023-03-12T14:23:48.829Z,1.60
2023-03-12T14:26:22.010Z,2.07
2023-03-12T14:28:55.705Z,2.17
2023-03-12T14:31:24.839Z,1.53
2023-03-12T14:33:57.854Z,2.07
2023-03-12T14:36:27.422Z,1.90
2023-03-12T14:39:00.564Z,1.40
2023-03-12T14:41:32.181Z,2.00
2023-03-12T14:44:06.646Z,1.77
2023-03-12T14:46:33.416Z,1.63
2023-03-12T14:49:00.209Z,1.67
2023-03-12T14:51:29.079Z,1.70
2023-03-12T14:53:57.575Z,2.07
2023-03-12T14:56:29.557Z,1.97
2023-03-12T14:58:58.589Z,1.93
2023-03-12T15:01:28.453Z,1.93
2023-03-12T15:04:00.475Z,1.77
2023-03-12T15:06:30.374Z,2.00
2023-03-12T15:08:58.565Z,1.60
2023-03-12T15:11:28.056Z,1.47
2023-03-12T15:14:01.422Z,1.50
2023-03-12T15:16:28.559Z,2.00
2023-03-12T15:18:59.040Z,2.33
2023-03-12T15:21:25.919Z,1.50
2023-03-12T15:23:52.947Z,1.80
2023-03-12T15:26:28.678Z,2.00
2023-03-12T15:28:57.393Z,2.10
2023-03-12T15:31:24.474Z,1.97
2023-03-12T15:34:01.633Z,2.37
2023-03-12T15:36:30.357Z,1.73
2023-03-12T15:39:00.477Z,2.97
2023-03-12T15:41:42.540Z,2.40
2023-03-12T15:44:17.706Z,2.80
2023-03-12T15:46:47.989Z,1.60
2023-03-12T15:49:23.461Z,2.13
2023-03-12T15:52:31.437Z,2.10
2023-03-12T15:55:06.785Z,2.83
2023-03-12T15:57:44.630Z,2.37
2023-03-12T16:00:31.381Z,2.60
2023-03-12T16:02:59.562Z,3.23
2023-03-12T16:05:30.205Z,1.97
2023-03-12T16:07:57.862Z,2.60
2023-03-12T16:10:27.928Z,3.07
2023-03-12T16:13:01.080Z,3.33
2023-03-12T16:15:32.075Z,3.47
2023-03-12T16:17:59.001Z,3.00
2023-03-12T16:20:26.254Z,3.20
2023-03-12T16:22:53.175Z,3.33
2023-03-12T16:25:20.170Z,3.63
2023-03-12T16:27:50.575Z,4.63
2023-03-12T16:30:22.576Z,3.77
2023-03-12T16:32:50.159Z,3.80
2023-03-12T16:35:18.921Z,3.50
2023-03-12T16:37:46.402Z,3.40
2023-03-12T16:40:24.034Z,3.87
2023-03-12T16:43:01.859Z,4.17
2023-03-12T16:45:29.308Z,4.13
2023-03-12T16:48:01.701Z,3.33
2023-03-12T16:50:28.936Z,3.60
2023-03-12T16:52:55.793Z,5.27
2023-03-12T16:55:25.428Z,4.37
2023-03-12T16:57:55.510Z,4.50
2023-03-12T17:00:25.275Z,4.40
2023-03-12T17:02:56.760Z,4.03
2023-03-12T17:05:24.445Z,4.17
2023-03-12T17:07:51.410Z,5.10
2023-03-12T17:10:18.355Z,5.00
2023-03-12T17:12:47.392Z,6.00
2023-03-12T17:15:19.614Z,5.23
2023-03-12T17:17:46.517Z,6.20
2023-03-12T17:20:15.966Z,7.43
2023-03-12T17:22:43.819Z,5.57
2023-03-12T17:25:20.631Z,5.53
2023-03-12T17:27:47.340Z,5.17
2023-03-12T17:30:15.382Z,4.90
2023-03-12T17:32:42.293Z,5.03
2023-03-12T17:35:09.466Z,5.33
2023-03-12T17:37:36.356Z,6.17
2023-03-12T17:40:07.429Z,6.83
2023-03-12T17:42:34.359Z,5.30
2023-03-12T17:45:01.314Z,5.07
2023-03-12T17:47:30.787Z,4.10
2023-03-12T17:49:57.736Z,4.80
2023-03-12T17:52:25.052Z,6.17
2023-03-12T17:54:51.912Z,5.40
2023-03-12T17:57:19.341Z,5.90
2023-03-12T17:59:46.577Z,5.93
2023-03-12T18:02:13.870Z,4.27
2023-03-12T18:04:40.830Z,3.87
2023-03-12T18:07:07.602Z,4.60
2023-03-12T18:09:34.709Z,4.63
2023-03-12T18:12:01.646Z,4.80
2023-03-12T18:14:29.205Z,4.40
2023-03-12T18:16:56.036Z,4.83
2023-03-12T18:19:24.032Z,5.13
2023-03-12T18:21:50.889Z,4.67
2023-03-12T18:24:20.464Z,5.37
2023-03-12T18:26:51.970Z,5.33
2023-03-12T18:29:18.759Z,5.93
2023-03-12T18:31:46.153Z,6.47
2023-03-12T18:34:15.993Z,6.03
2023-03-12T18:36:42.720Z,5.83
2023-03-12T18:39:09.760Z,7.53
2023-03-12T18:41:37.908Z,20.60
2023-03-12T18:44:05.932Z,8.27
2023-03-12T18:46:32.862Z,7.50
2023-03-12T18:49:04.205Z,6.63
2023-03-12T18:51:30.982Z,7.40
2023-03-12T18:53:59.391Z,6.20
2023-03-12T18:56:27.243Z,9.33
2023-03-12T18:58:54.308Z,7.43
2023-03-12T19:01:21.029Z,7.27
2023-03-12T19:03:48.318Z,7.90
2023-03-12T19:06:17.013Z,9.17
2023-03-12T19:08:44.063Z,6.90
2023-03-12T19:11:13.400Z,25.77
2023-03-12T19:13:40.101Z,24.10
2023-03-12T19:16:09.673Z,9.10
2023-03-12T19:18:38.046Z,8.93
2023-03-12T19:21:06.650Z,9.67
2023-03-12T19:23:34.963Z,6.47
2023-03-12T19:26:01.752Z,8.13
2023-03-12T19:28:28.747Z,8.10
2023-03-12T19:30:59.543Z,9.87
2023-03-12T19:33:27.692Z,9.67
2023-03-12T19:36:01.692Z,9.10
2023-03-12T19:38:29.146Z,8.10
2023-03-12T19:40:59.739Z,8.03
2023-03-12T19:43:27.492Z,8.77
2023-03-12T19:45:57.774Z,8.57
2023-03-12T19:48:25.149Z,9.10
2023-03-12T19:50:54.121Z,11.93
2023-03-12T19:53:21.669Z,12.90
2023-03-12T19:55:50.306Z,42.83
2023-03-12T19:58:22.160Z,10.07
2023-03-12T20:00:50.656Z,10.67
2023-03-12T20:03:17.499Z,9.90
2023-03-12T20:05:45.538Z,10.53
2023-03-12T20:08:13.977Z,9.17
2023-03-12T20:10:40.802Z,9.60
2023-03-12T20:13:15.720Z,9.87
2023-03-12T20:15:47.703Z,8.83
2023-03-12T20:18:18.266Z,9.53
2023-03-12T20:20:46.860Z,9.00
2023-03-12T20:23:13.541Z,10.50
2023-03-12T20:25:41.116Z,11.77
2023-03-12T20:28:08.640Z,11.17
2023-03-12T20:30:35.966Z,11.67
2023-03-12T20:33:05.005Z,11.30
2023-03-12T20:35:31.993Z,11.40
2023-03-12T20:37:58.708Z,11.77
2023-03-12T20:40:26.834Z,12.53
2023-03-12T20:42:53.796Z,11.63
2023-03-12T20:45:20.720Z,12.23
2023-03-12T20:47:53.302Z,10.90
2023-03-12T20:50:21.632Z,12.53
2023-03-12T20:52:48.558Z,12.30
2023-03-12T20:55:18.928Z,13.00
2023-03-12T20:57:50.053Z,12.40
2023-03-12T21:00:23.769Z,11.50
2023-03-12T21:02:51.652Z,11.57
2023-03-12T21:05:18.664Z,11.23
2023-03-12T21:07:46.518Z,11.73
2023-03-12T21:10:13.665Z,11.17
2023-03-12T21:12:40.404Z,14.17
2023-03-12T21:15:08.998Z,11.30
2023-03-12T21:17:40.884Z,12.13
2023-03-12T21:20:12.296Z,11.40
2023-03-12T21:22:39.725Z,11.47
2023-03-12T21:25:09.794Z,9.67
2023-03-12T21:27:49.944Z,12.33
2023-03-12T21:30:18.937Z,11.57
2023-03-12T21:32:45.812Z,10.80
2023-03-12T21:35:12.548Z,13.23
2023-03-12T21:37:39.523Z,11.60
2023-03-12T21:40:08.633Z,10.07
2023-03-12T21:42:35.357Z,8.30
2023-03-12T21:45:02.705Z,10.07
2023-03-12T21:47:29.703Z,11.10
2023-03-12T21:49:56.499Z,9.57
2023-03-12T21:52:23.441Z,9.97
2023-03-12T21:54:50.284Z,10.60
2023-03-12T21:57:17.730Z,11.60
2023-03-12T21:59:44.530Z,11.53
2023-03-12T22:02:11.888Z,12.00
2023-03-12T22:04:39.173Z,12.00
2023-03-12T22:07:06.280Z,12.33
2023-03-12T22:09:33.169Z,11.23
2023-03-12T22:12:00.772Z,11.13
2023-03-12T22:14:29.771Z,10.57
2023-03-12T22:16:56.731Z,10.60
2023-03-12T22:19:27.568Z,12.03
2023-03-12T22:21:54.531Z,11.93
2023-03-12T22:24:22.862Z,11.47
2023-03-12T22:26:50.234Z,10.77
2023-03-12T22:29:17.092Z,11.50
2023-03-12T22:31:44.769Z,9.33
2023-03-12T22:34:11.457Z,11.10
2023-03-12T22:36:38.613Z,11.43
2023-03-12T22:39:05.383Z,11.20
2023-03-12T22:41:32.239Z,12.33
2023-03-12T22:44:03.282Z,11.67
2023-03-12T22:46:30.002Z,11.60
2023-03-12T22:48:58.655Z,10.83
2023-03-12T22:51:26.884Z,11.53
2023-03-12T22:53:53.940Z,9.83
2023-03-12T22:56:23.386Z,9.63
2023-03-12T22:58:50.344Z,9.73
2023-03-12T23:01:20.488Z,10.20
2023-03-12T23:03:48.076Z,10.70
2023-03-12T23:06:16.989Z,10.43
2023-03-12T23:08:46.313Z,10.27
2023-03-12T23:11:14.777Z,11.13
2023-03-12T23:13:43.623Z,11.13
2023-03-12T23:16:12.197Z,10.43
2023-03-12T23:18:39.261Z,9.87
2023-03-12T23:21:07.579Z,10.50
2023-03-12T23:23:36.802Z,10.30
2023-03-12T23:26:03.580Z,10.30
2023-03-12T23:28:31.001Z,11.07
2023-03-12T23:30:59.374Z,8.30
2023-03-12T23:33:27.326Z,10.67
2023-03-12T23:35:56.927Z,9.50
2023-03-12T23:38:24.360Z,9.63
2023-03-12T23:40:52.045Z,9.20
2023-03-12T23:43:18.769Z,9.90
2023-03-12T23:45:45.528Z,9.53
2023-03-12T23:48:12.588Z,8.83
2023-03-12T23:50:40.555Z,9.77
2023-03-12T23:53:07.364Z,10.30
2023-03-12T23:55:34.231Z,8.80
2023-03-12T23:58:01.885Z,8.80
